SLC weather

Salt Lake City International Airport
Salt Lake City, Utah, United States

Public forecast

Using degrees Fahrenheit for public forecast. Weather courtesy of forecast.io.

METAR (pilot weather report)

Retrieved 2017/03/29 08:54 UTC (18 minutes ago):

KSLC 290854Z 00000KT 10SM CLR 04/00 A3023

TAF (pilot weather forecast)

Retrieved 2017/03/29 06:42 UTC (3 hours ago):

TAF KSLC 290536Z 2906/3012 30005KT P6SM SKC FM290800 14006KT P6SM SKC FM291900 33007KT P6SM SCT120 FM300300 15006KT P6SM SCT080 SCT120